Time;durP1;ratioP1;P1;durP2;ratioP2;P2;SDS_P1;SDS_P2;PMS_P1;PMS_P2;Temp;Humidity;BMP_temperature;BMP_pressure;BME280_temperature;BME280_humidity;BME280_pressure;Samples;Min_cycle;Max_cycle;Signal;HPM_P1;HPM_P2
2022/06/20 00:01:53;;;;;;;16.08;1.58;;;13.60;99.90;;;;;;5074713;28;20123;-75
2022/06/20 00:04:19;;;;;;;12.30;1.60;;;13.60;99.90;;;;;;5074702;28;20048;-75
2022/06/20 00:06:46;;;;;;;15.43;2.03;;;13.60;99.90;;;;;;5075785;28;20509;-74
2022/06/20 00:09:14;;;;;;;10.57;2.03;;;13.60;99.90;;;;;;5074597;28;20048;-75
2022/06/20 00:11:46;;;;;;;12.43;1.90;;;13.70;99.90;;;;;;5108603;28;20380;-75
2022/06/20 00:14:18;;;;;;;8.75;1.67;;;13.70;99.90;;;;;;5075445;28;20500;-75
2022/06/20 00:16:44;;;;;;;12.77;1.83;;;13.60;99.90;;;;;;5074784;28;20048;-76
2022/06/20 00:19:10;;;;;;;13.90;2.00;;;13.60;99.90;;;;;;5075757;28;20040;-76
2022/06/20 00:21:37;;;;;;;14.25;2.00;;;13.50;99.90;;;;;;5075925;28;20048;-76
2022/06/20 00:24:03;;;;;;;14.38;1.70;;;13.40;99.90;;;;;;5074245;28;20052;-76
2022/06/20 00:26:29;;;;;;;7.63;1.55;;;13.40;99.90;;;;;;5076094;28;20048;-76
2022/06/20 00:28:56;;;;;;;13.45;1.83;;;13.40;99.90;;;;;;5058081;28;20071;-76
2022/06/20 00:31:22;;;;;;;14.57;2.10;;;13.40;99.90;;;;;;5074087;28;20524;-75
2022/06/20 00:33:48;;;;;;;12.77;1.60;;;13.40;99.90;;;;;;5075307;28;20119;-76
2022/06/20 00:36:15;;;;;;;11.57;2.00;;;13.40;99.90;;;;;;5057666;28;20053;-75
2022/06/20 00:38:42;;;;;;;9.10;1.77;;;13.30;99.90;;;;;;5075491;28;20075;-75
2022/06/20 00:41:15;;;;;;;12.23;1.63;;;13.30;99.90;;;;;;5075271;28;20060;-75
2022/06/20 00:43:52;;;;;;;16.08;1.65;;;13.30;99.90;;;;;;5075329;28;20140;-75
2022/06/20 00:46:25;;;;;;;10.98;1.73;;;13.40;99.90;;;;;;5076545;28;20142;-75
2022/06/20 00:49:06;;;;;;;13.68;1.90;;;13.40;99.90;;;;;;5083924;28;20132;-76
2022/06/20 00:51:38;;;;;;;16.00;1.92;;;13.40;99.90;;;;;;5089242;28;20045;-75
2022/06/20 00:54:11;;;;;;;14.52;2.00;;;13.40;99.90;;;;;;5094634;28;20096;-76
2022/06/20 00:57:02;;;;;;;13.98;1.95;;;13.40;99.90;;;;;;5086952;28;20136;-77
2022/06/20 00:59:49;;;;;;;13.77;2.40;;;13.40;99.90;;;;;;5083587;28;20049;-75
2022/06/20 01:02:23;;;;;;;16.63;2.15;;;13.40;99.90;;;;;;5082447;28;20448;-74
2022/06/20 01:04:59;;;;;;;17.00;2.47;;;13.40;99.90;;;;;;5080456;28;20123;-75
2022/06/20 01:07:45;;;;;;;12.63;2.63;;;13.40;99.90;;;;;;5079789;28;20048;-76
2022/06/20 01:10:14;;;;;;;22.15;3.60;;;13.40;99.90;;;;;;5078272;28;20488;-76
2022/06/20 01:12:55;;;;;;;16.13;2.80;;;13.40;99.90;;;;;;5075054;28;20036;-78
2022/06/20 01:15:24;;;;;;;15.98;2.97;;;13.40;99.90;;;;;;5075521;28;20383;-75
2022/06/20 01:17:51;;;;;;;15.25;2.60;;;13.40;99.90;;;;;;5074605;28;20052;-76
2022/06/20 01:20:27;;;;;;;13.90;3.13;;;13.30;99.90;;;;;;5074430;28;20052;-75
2022/06/20 01:23:04;;;;;;;16.85;3.53;;;13.20;99.90;;;;;;5074820;28;20056;-76
2022/06/20 01:25:48;;;;;;;18.00;5.78;;;13.20;99.90;;;;;;5074756;28;20047;-75
2022/06/20 01:28:26;;;;;;;24.50;6.00;;;13.20;99.90;;;;;;5074267;28;20093;-76
2022/06/20 01:30:52;;;;;;;26.80;6.72;;;13.20;99.90;;;;;;5074555;28;20083;-75
2022/06/20 01:33:20;;;;;;;29.45;9.88;;;13.10;99.90;;;;;;5074278;28;20036;-75
2022/06/20 01:38:32;;;;;;;36.83;14.10;;;13.20;99.90;;;;;;5074782;28;20052;-75
2022/06/20 01:43:47;;;;;;;28.02;7.07;;;13.30;99.90;;;;;;5073868;28;20098;-76
2022/06/20 01:46:14;;;;;;;20.90;5.15;;;13.30;99.90;;;;;;5073876;28;20118;-75
2022/06/20 01:48:52;;;;;;;17.65;4.50;;;13.30;99.90;;;;;;5074256;28;20045;-75
2022/06/20 01:51:24;;;;;;;15.40;4.05;;;13.30;99.90;;;;;;5074550;28;20045;-74
2022/06/20 01:53:51;;;;;;;15.10;3.38;;;13.30;99.90;;;;;;5073704;28;20430;-75
2022/06/20 01:56:20;;;;;;;15.77;3.20;;;13.30;99.90;;;;;;5072759;28;20040;-75
2022/06/20 01:59:07;;;;;;;13.45;3.15;;;13.20;99.90;;;;;;5055737;28;20139;-76
2022/06/20 02:01:37;;;;;;;15.68;2.72;;;13.30;99.90;;;;;;5074181;28;20190;-75
2022/06/20 02:04:13;;;;;;;13.80;2.90;;;13.30;99.90;;;;;;5073881;28;20072;-76
2022/06/20 02:06:39;;;;;;;10.70;2.55;;;13.20;99.90;;;;;;5073189;28;20488;-76
2022/06/20 02:09:06;;;;;;;12.82;2.40;;;13.10;99.90;;;;;;5072685;28;20083;-75
2022/06/20 02:11:38;;;;;;;13.10;2.85;;;13.10;99.90;;;;;;5073691;28;20051;-76
2022/06/20 02:14:07;;;;;;;15.48;2.90;;;13.00;99.90;;;;;;5072032;28;20048;-76
2022/06/20 02:16:35;;;;;;;16.30;3.00;;;12.90;99.90;;;;;;5071854;28;20076;-75
2022/06/20 02:19:04;;;;;;;17.52;3.40;;;12.80;99.90;;;;;;5073821;28;20111;-76
2022/06/20 02:21:32;;;;;;;14.30;3.10;;;12.80;99.90;;;;;;5071828;28;20337;-76
2022/06/20 02:24:05;;;;;;;19.05;3.05;;;12.70;99.90;;;;;;5073061;28;20142;-75
2022/06/20 02:26:35;;;;;;;14.18;2.95;;;12.70;99.90;;;;;;5072839;28;20113;-75
2022/06/20 02:29:23;;;;;;;16.15;2.70;;;12.60;99.90;;;;;;5072912;28;20123;-76
2022/06/20 02:32:15;;;;;;;15.50;2.85;;;12.60;99.90;;;;;;5073382;28;20056;-75
2022/06/20 02:34:41;;;;;;;13.52;3.65;;;12.60;99.90;;;;;;5066799;28;20064;-75
2022/06/20 02:37:13;;;;;;;18.38;2.85;;;12.50;99.90;;;;;;5072745;28;20381;-76
2022/06/20 02:39:41;;;;;;;16.20;3.25;;;12.50;99.90;;;;;;5072885;28;20130;-75
2022/06/20 02:42:14;;;;;;;15.88;2.90;;;12.40;99.90;;;;;;5073262;28;20124;-76
2022/06/20 02:44:44;;;;;;;12.52;2.90;;;12.40;99.90;;;;;;5072236;28;20117;-76
2022/06/20 02:47:11;;;;;;;15.52;3.20;;;12.30;99.90;;;;;;5073403;28;20052;-76
2022/06/20 02:49:38;;;;;;;13.68;3.20;;;12.30;99.90;;;;;;5071496;28;20052;-76
2022/06/20 02:52:06;;;;;;;;;;;12.20;99.90;;;;;;5073128;28;20036;-76
2022/06/20 02:54:34;;;;;;;12.75;2.88;;;12.10;99.90;;;;;;5071838;28;20327;-76
2022/06/20 02:57:07;;;;;;;14.40;3.13;;;12.00;99.90;;;;;;5071263;28;20127;-77
2022/06/20 02:59:43;;;;;;;10.20;2.90;;;12.00;99.90;;;;;;5071950;28;20127;-76
2022/06/20 03:02:12;;;;;;;16.35;2.75;;;12.00;99.90;;;;;;5071358;28;20041;-77
2022/06/20 03:04:41;;;;;;;12.18;2.90;;;11.90;99.90;;;;;;5072683;28;20044;-76
2022/06/20 03:07:12;;;;;;;11.68;2.58;;;11.80;99.90;;;;;;5072270;28;20044;-76
2022/06/20 03:09:40;;;;;;;11.30;3.05;;;11.80;99.90;;;;;;5072738;28;20145;-75
2022/06/20 03:12:08;;;;;;;15.27;3.22;;;11.70;99.90;;;;;;5072298;28;20045;-76
2022/06/20 03:14:47;;;;;;;13.30;3.08;;;11.70;99.90;;;;;;5072408;28;20050;-76
2022/06/20 03:17:15;;;;;;;16.95;3.28;;;11.60;99.90;;;;;;5072657;28;20189;-76
2022/06/20 03:19:46;;;;;;;10.32;3.05;;;11.60;99.90;;;;;;5072706;28;20132;-76
2022/06/20 03:22:17;;;;;;;15.43;3.22;;;11.50;99.90;;;;;;5072868;28;20113;-76
2022/06/20 03:24:45;;;;;;;11.82;3.30;;;11.40;99.90;;;;;;5072347;28;20048;-76
2022/06/20 03:27:23;;;;;;;12.73;3.60;;;11.40;99.90;;;;;;5072157;28;20048;-76
2022/06/20 03:29:54;;;;;;;17.30;3.80;;;11.40;99.90;;;;;;5072455;28;20124;-77
2022/06/20 03:32:24;;;;;;;14.23;3.42;;;11.40;99.90;;;;;;5072326;28;20086;-76
2022/06/20 03:34:52;;;;;;;12.10;4.20;;;11.40;99.90;;;;;;5072853;28;20380;-77
2022/06/20 03:37:19;;;;;;;13.98;3.83;;;11.40;99.90;;;;;;5070755;28;20044;-76
2022/06/20 03:39:47;;;;;;;15.70;4.20;;;11.30;99.90;;;;;;5104758;28;20052;-76
2022/06/20 03:42:13;;;;;;;16.17;3.42;;;11.40;99.90;;;;;;5070500;28;20489;-77
2022/06/20 03:44:47;;;;;;;17.88;3.90;;;11.40;99.90;;;;;;5072137;28;20392;-76
2022/06/20 03:47:20;;;;;;;10.95;3.95;;;11.60;99.90;;;;;;5072429;28;20045;-76
2022/06/20 03:50:05;;;;;;;17.75;4.10;;;11.70;99.90;;;;;;5072712;28;20131;-75
2022/06/20 03:52:39;;;;;;;17.70;4.25;;;11.70;99.90;;;;;;5072456;28;20044;-76
2022/06/20 03:55:24;;;;;;;15.02;3.78;;;11.70;99.90;;;;;;5071324;28;20044;-76
2022/06/20 03:57:59;;;;;;;14.25;3.70;;;11.80;99.90;;;;;;5072991;28;20041;-76
2022/06/20 04:00:45;;;;;;;20.98;4.32;;;11.80;99.90;;;;;;5073047;28;20048;-76
2022/06/20 04:03:19;;;;;;;22.92;4.15;;;11.70;99.90;;;;;;5072884;28;20032;-77
2022/06/20 04:05:48;;;;;;;17.73;3.95;;;11.70;99.90;;;;;;5072334;28;20048;-77
2022/06/20 04:08:25;;;;;;;17.70;3.47;;;11.70;99.90;;;;;;5072574;28;20110;-76
2022/06/20 04:10:58;;;;;;;13.85;3.75;;;11.70;99.90;;;;;;5071651;28;20093;-77
2022/06/20 04:13:55;;;;;;;14.07;3.95;;;11.70;99.90;;;;;;5072028;28;20070;-76
2022/06/20 04:16:36;;;;;;;15.73;4.75;;;11.70;99.90;;;;;;5072136;28;20392;-76
2022/06/20 04:19:30;;;;;;;15.82;3.97;;;11.70;99.90;;;;;;5071246;28;20052;-76
2022/06/20 04:22:16;;;;;;;23.30;4.72;;;11.60;99.90;;;;;;5074465;28;20087;-77
2022/06/20 04:24:51;;;;;;;16.52;4.05;;;11.70;99.90;;;;;;5075552;28;20154;-76
2022/06/20 04:27:37;;;;;;;17.98;4.47;;;11.70;99.90;;;;;;5076164;28;20044;-76
2022/06/20 04:30:02;;;;;;;19.75;4.50;;;11.70;99.90;;;;;;5075983;28;20049;-76
2022/06/20 04:32:57;;;;;;;14.63;4.38;;;11.80;99.90;;;;;;5075258;28;20048;-76
2022/06/20 04:35:30;;;;;;;13.90;4.50;;;11.90;99.90;;;;;;5075943;28;20053;-75
2022/06/20 04:37:59;;;;;;;15.25;4.93;;;11.90;99.90;;;;;;5075098;28;20132;-76
2022/06/20 04:40:28;;;;;;;18.15;4.78;;;12.00;99.90;;;;;;5074856;28;20133;-75
2022/06/20 04:43:01;;;;;;;12.95;4.03;;;12.10;99.90;;;;;;5074250;28;20052;-76
2022/06/20 04:45:39;;;;;;;14.80;4.10;;;12.30;99.90;;;;;;5073996;28;20091;-76
2022/06/20 04:48:18;;;;;;;9.23;3.08;;;12.40;99.90;;;;;;5073865;28;20078;-75
2022/06/20 04:50:49;;;;;;;13.35;3.72;;;12.50;99.90;;;;;;5075011;28;20123;-76
2022/06/20 04:53:20;;;;;;;15.55;3.28;;;12.60;99.90;;;;;;5075232;28;20112;-75
2022/06/20 04:55:53;;;;;;;13.20;2.95;;;12.70;99.90;;;;;;5075776;28;20087;-76
2022/06/20 04:58:27;;;;;;;14.63;2.88;;;12.80;99.90;;;;;;5074789;28;20090;-76
2022/06/20 05:00:53;;;;;;;14.30;2.92;;;12.70;99.90;;;;;;5074960;28;20084;-75
2022/06/20 05:03:27;;;;;;;17.30;3.60;;;12.70;99.90;;;;;;5075324;28;20048;-73
2022/06/20 05:05:55;;;;;;;13.95;2.90;;;12.70;99.90;;;;;;5074951;28;20271;-72
2022/06/20 05:08:29;;;;;;;12.00;3.10;;;12.80;99.90;;;;;;5056635;28;20178;-74
2022/06/20 05:11:04;;;;;;;16.45;3.30;;;12.90;99.90;;;;;;5074736;28;20353;-75
2022/06/20 05:13:42;;;;;;;15.10;3.53;;;12.90;99.90;;;;;;5074004;28;20054;-74
2022/06/20 05:16:18;;;;;;;12.45;3.47;;;13.00;99.90;;;;;;5075285;28;20053;-75
2022/06/20 05:18:48;;;;;;;12.32;2.67;;;13.10;99.90;;;;;;5073904;28;20047;-76
2022/06/20 05:21:19;;;;;;;10.00;2.78;;;13.10;99.90;;;;;;5074237;28;20492;-74
2022/06/20 05:23:49;;;;;;;17.55;3.25;;;13.20;99.90;;;;;;5075260;28;20052;-73
2022/06/20 05:26:25;;;;;;;15.30;3.03;;;13.20;99.90;;;;;;5074971;28;20084;-75
2022/06/20 05:28:54;;;;;;;11.30;3.08;;;13.20;99.90;;;;;;5074870;28;20048;-73
2022/06/20 05:31:33;;;;;;;15.20;3.20;;;13.40;99.90;;;;;;5073022;28;20491;-73
2022/06/20 05:34:13;;;;;;;14.60;3.22;;;13.30;99.90;;;;;;5074694;28;20048;-75
2022/06/20 05:36:55;;;;;;;17.98;3.53;;;13.40;99.90;;;;;;5074939;28;20453;-75
2022/06/20 05:39:37;;;;;;;19.75;3.42;;;13.50;99.90;;;;;;5074549;28;20076;-74
2022/06/20 05:42:03;;;;;;;10.73;2.92;;;13.50;99.90;;;;;;5073573;28;20510;-74
2022/06/20 05:44:29;;;;;;;10.82;3.22;;;13.60;99.90;;;;;;5073923;28;20052;-75
2022/06/20 05:47:03;;;;;;;19.38;3.75;;;13.60;99.90;;;;;;5073687;28;20337;-74
2022/06/20 05:49:38;;;;;;;11.25;2.97;;;13.60;99.90;;;;;;5074371;28;20052;-74
2022/06/20 05:52:06;;;;;;;14.15;3.03;;;13.60;99.90;;;;;;5074323;28;20052;-75
2022/06/20 05:54:48;;;;;;;20.77;3.63;;;13.70;99.90;;;;;;5073455;28;20032;-75
2022/06/20 05:57:19;;;;;;;14.20;3.70;;;13.70;99.90;;;;;;5073423;28;20037;-74
2022/06/20 05:59:54;;;;;;;13.15;3.22;;;13.80;99.90;;;;;;5074186;28;20045;-74
2022/06/20 06:02:29;;;;;;;12.98;3.28;;;13.80;99.90;;;;;;5073964;28;20117;-75
2022/06/20 06:05:08;;;;;;;13.60;3.40;;;13.90;99.90;;;;;;5072621;28;20101;-73
2022/06/20 06:07:40;;;;;;;17.60;3.70;;;14.00;99.90;;;;;;5073628;28;20056;-75
2022/06/20 06:10:26;;;;;;;10.98;3.15;;;14.10;99.90;;;;;;5073963;28;20371;-76
2022/06/20 06:13:01;;;;;;;17.65;3.58;;;14.00;99.90;;;;;;5073975;28;20438;-75
2022/06/20 06:15:30;;;;;;;16.60;3.55;;;14.10;99.90;;;;;;5056370;28;20048;-74
2022/06/20 06:18:06;;;;;;;12.77;3.45;;;14.10;99.90;;;;;;5073507;28;20052;-74
2022/06/20 06:20:32;;;;;;;17.42;3.40;;;14.20;99.90;;;;;;5072407;28;20041;-74
2022/06/20 06:23:02;;;;;;;16.90;3.40;;;14.10;99.90;;;;;;5072475;28;20128;-75
2022/06/20 06:25:37;;;;;;;20.73;3.60;;;14.20;99.90;;;;;;5072992;28;20044;-74
2022/06/20 06:28:11;;;;;;;19.33;3.33;;;14.30;99.90;;;;;;5072329;28;20048;-76
2022/06/20 06:30:42;;;;;;;18.27;3.20;;;14.30;99.90;;;;;;5072802;28;20101;-74
2022/06/20 06:33:11;;;;;;;14.65;3.50;;;14.40;99.90;;;;;;5073819;28;20095;-78
2022/06/20 06:35:44;;;;;;;25.27;4.05;;;14.50;99.90;;;;;;5073417;28;20041;-74
2022/06/20 06:38:17;;;;;;;19.55;3.92;;;14.60;99.90;;;;;;5073844;28;20123;-75
2022/06/20 06:40:50;;;;;;;20.73;4.07;;;14.70;99.90;;;;;;5073070;28;20400;-75
2022/06/20 06:43:19;;;;;;;26.70;4.35;;;14.80;99.90;;;;;;5073133;28;20358;-75
2022/06/20 06:45:46;;;;;;;16.90;3.65;;;14.90;99.90;;;;;;5073482;28;20045;-77
2022/06/20 06:48:52;;;;;;;16.15;3.53;;;14.80;99.90;;;;;;5071681;28;20231;-76
2022/06/20 06:51:33;;;;;;;16.45;4.13;;;14.90;99.90;;;;;;5069692;28;20053;-75
2022/06/20 06:54:15;;;;;;;20.05;4.05;;;15.10;99.90;;;;;;5073716;28;20133;-76
2022/06/20 06:57:08;;;;;;;13.38;3.70;;;15.20;99.90;;;;;;5071890;28;20052;-76
2022/06/20 06:59:49;;;;;;;15.50;3.58;;;15.40;99.90;;;;;;5071774;28;20202;-75
2022/06/20 07:02:20;;;;;;;15.52;3.15;;;15.60;99.90;;;;;;5073524;28;20138;-76
2022/06/20 07:04:56;;;;;;;18.85;3.70;;;15.90;99.90;;;;;;5072939;28;20082;-74
2022/06/20 07:07:25;;;;;;;14.65;3.80;;;16.20;99.90;;;;;;5072608;28;20127;-74
2022/06/20 07:09:53;;;;;;;17.48;3.47;;;16.30;99.90;;;;;;5073099;28;20105;-74
2022/06/20 07:12:27;;;;;;;18.75;3.95;;;16.20;99.90;;;;;;5072579;28;20124;-75
2022/06/20 07:15:15;;;;;;;15.55;3.75;;;16.30;99.90;;;;;;5072000;28;20466;-74
2022/06/20 07:17:44;;;;;;;20.25;4.00;;;16.20;99.90;;;;;;5072462;28;20048;-76
2022/06/20 07:20:11;;;;;;;17.98;3.88;;;16.00;99.90;;;;;;5071411;28;20122;-76
2022/06/20 07:22:40;;;;;;;21.60;3.83;;;16.00;99.90;;;;;;5071124;28;20044;-74
2022/06/20 07:25:12;;;;;;;16.35;4.00;;;16.00;99.90;;;;;;5054828;28;20132;-74
2022/06/20 07:27:44;;;;;;;11.40;3.10;;;15.90;99.90;;;;;;5073146;28;20093;-73
2022/06/20 07:30:14;;;;;;;19.02;3.60;;;16.10;99.90;;;;;;5073009;28;20483;-75
2022/06/20 07:32:50;;;;;;;15.52;3.05;;;16.00;99.90;;;;;;5072469;28;20048;-74
2022/06/20 07:35:25;;;;;;;15.50;3.38;;;16.00;99.90;;;;;;5072450;28;20098;-75
2022/06/20 07:38:16;;;;;;;11.63;3.17;;;16.20;99.90;;;;;;5072651;28;20068;-75
2022/06/20 07:40:55;;;;;;;9.93;2.33;;;;;;;;;;5072794;28;20141;-73
2022/06/20 07:43:52;;;;;;;14.80;3.60;;;16.40;99.90;;;;;;5071861;28;20041;-74
2022/06/20 07:46:34;;;;;;;15.18;3.70;;;16.60;99.90;;;;;;5072553;28;20045;-74
2022/06/20 07:49:08;;;;;;;13.15;2.90;;;16.50;99.90;;;;;;5071702;28;20052;-75
2022/06/20 07:51:37;;;;;;;15.35;3.30;;;16.70;99.90;;;;;;5073031;28;20052;-74
2022/06/20 07:54:11;;;;;;;18.23;3.33;;;16.70;99.90;;;;;;5078846;28;20126;-74
2022/06/20 07:56:54;;;;;;;15.52;4.05;;;16.80;99.90;;;;;;5089379;28;20079;-73
2022/06/20 07:59:27;;;;;;;12.88;2.90;;;16.60;99.90;;;;;;5088743;28;20044;-75
2022/06/20 08:01:59;;;;;;;13.05;2.90;;;16.90;99.90;;;;;;5087580;28;20048;-74
2022/06/20 08:04:34;;;;;;;11.90;3.22;;;17.20;99.90;;;;;;5087771;28;20049;-75
2022/06/20 08:07:06;;;;;;;16.10;3.20;;;17.20;99.90;;;;;;5086980;28;20060;-73
2022/06/20 08:09:40;;;;;;;16.15;3.22;;;17.10;99.90;;;;;;5088852;28;20468;-75
2022/06/20 08:12:34;;;;;;;11.65;2.80;;;17.40;99.20;;;;;;5088475;28;20051;-75
2022/06/20 08:15:03;;;;;;;16.73;3.45;;;17.70;99.90;;;;;;5082275;28;20345;-75
2022/06/20 08:17:31;;;;;;;15.68;3.55;;;17.70;99.90;;;;;;5083657;28;20051;-75
2022/06/20 08:19:59;;;;;;;14.15;3.42;;;17.60;99.90;;;;;;5082703;28;20408;-75
2022/06/20 08:22:33;;;;;;;19.33;3.65;;;17.80;99.70;;;;;;5078243;28;20140;-76
2022/06/20 08:25:14;;;;;;;12.07;3.00;;;17.80;99.90;;;;;;5080713;28;20055;-75
2022/06/20 08:27:46;;;;;;;15.95;3.35;;;18.10;99.90;;;;;;5076345;28;20040;-75
2022/06/20 08:30:17;;;;;;;16.50;3.17;;;18.10;98.20;;;;;;5075615;28;20036;-75
2022/06/20 08:32:48;;;;;;;16.48;2.75;;;18.40;97.00;;;;;;5075667;28;20193;-75
2022/06/20 08:35:27;;;;;;;12.30;2.85;;;18.10;95.40;;;;;;5057997;28;20092;-74
2022/06/20 08:38:06;;;;;;;11.25;3.00;;;18.00;95.10;;;;;;5074098;28;20048;-73
2022/06/20 08:40:47;;;;;;;18.58;2.97;;;17.90;94.90;;;;;;5075636;28;20044;-74
2022/06/20 08:43:25;;;;;;;14.48;2.92;;;17.60;94.30;;;;;;5075623;28;20048;-74
2022/06/20 08:46:00;;;;;;;13.00;2.30;;;17.70;94.70;;;;;;5075450;28;20040;-75
2022/06/20 08:48:45;;;;;;;11.15;2.72;;;18.10;94.50;;;;;;5074164;28;20041;-76
2022/06/20 08:52:06;;;;;;;11.15;2.63;;;18.40;94.50;;;;;;5057581;28;20052;-75
2022/06/20 08:55:12;;;;;;;16.38;2.88;;;18.40;93.60;;;;;;5059185;28;20105;-76
2022/06/20 08:57:44;;;;;;;10.60;2.95;;;18.10;94.40;;;;;;5019843;28;20041;-74
2022/06/20 09:00:25;;;;;;;14.43;2.88;;;17.90;93.90;;;;;;5067889;28;20434;-74
2022/06/20 09:03:22;;;;;;;15.05;2.75;;;17.90;94.50;;;;;;5075321;28;20396;-75
2022/06/20 09:06:16;;;;;;;14.70;2.85;;;17.90;94.70;;;;;;5057115;28;20052;-75
2022/06/20 09:08:51;;;;;;;12.20;1.83;;;17.60;92.60;;;;;;5064674;28;20499;-73
2022/06/20 09:11:50;;;;;;;10.07;3.17;;;17.60;91.90;;;;;;5074011;28;20036;-74
2022/06/20 09:14:38;;;;;;;10.90;2.08;;;17.90;92.00;;;;;;5075364;28;20048;-74
2022/06/20 09:17:25;;;;;;;10.65;2.40;;;18.00;91.30;;;;;;5074764;28;20049;-77
2022/06/20 09:19:53;;;;;;;12.05;2.00;;;18.40;91.90;;;;;;5075440;28;20040;-75
2022/06/20 09:23:03;;;;;;;17.30;2.45;;;18.70;91.90;;;;;;5075143;28;20131;-74
2022/06/20 09:26:11;;;;;;;14.88;2.67;;;19.10;91.80;;;;;;5052131;28;20044;-73
2022/06/20 09:28:59;;;;;;;9.85;2.13;;;19.00;91.00;;;;;;5073839;28;20044;-75
2022/06/20 09:31:24;;;;;;;12.63;2.10;;;19.00;91.40;;;;;;5073262;28;20049;-76
2022/06/20 09:34:14;;;;;;;9.53;2.37;;;19.00;91.50;;;;;;5074417;28;20050;-76
2022/06/20 09:37:19;;;;;;;17.30;1.80;;;19.10;90.80;;;;;;5075368;28;20044;-74
2022/06/20 09:39:54;;;;;;;13.87;1.73;;;19.10;89.30;;;;;;5025051;28;20136;-73
2022/06/20 09:42:49;;;;;;;11.30;2.15;;;18.50;85.30;;;;;;5074711;28;20299;-73
2022/06/20 09:45:41;;;;;;;11.50;1.73;;;18.40;85.00;;;;;;5074582;28;20135;-73
2022/06/20 09:48:13;;;;;;;7.95;1.50;;;18.50;86.90;;;;;;5074266;28;20051;-76
2022/06/20 09:50:43;;;;;;;10.27;1.70;;;18.60;85.40;;;;;;5074113;28;20053;-75
2022/06/20 09:53:24;;;;;;;9.35;2.15;;;18.70;87.90;;;;;;5073104;28;20056;-75
2022/06/20 09:56:06;;;;;;;8.60;2.00;;;18.60;87.70;;;;;;5074353;28;20079;-75
2022/06/20 09:59:06;;;;;;;15.95;3.17;;;18.80;87.50;;;;;;5072741;28;20044;-79
2022/06/20 10:01:44;;;;;;;9.68;1.90;;;18.60;86.80;;;;;;5072634;28;20135;-74
2022/06/20 10:04:41;;;;;;;9.68;1.83;;;18.90;87.40;;;;;;5074266;28;20095;-75
2022/06/20 10:07:25;;;;;;;7.03;1.30;;;18.80;79.90;;;;;;5073554;28;20040;-75
2022/06/20 10:10:28;;;;;;;9.13;2.00;;;19.10;80.20;;;;;;5074191;28;20129;-74
2022/06/20 10:13:09;;;;;;;8.65;1.80;;;19.10;81.20;;;;;;5074403;28;20041;-74
2022/06/20 10:15:50;;;;;;;7.40;1.70;;;19.60;78.90;;;;;;5073953;28;20110;-75
2022/06/20 10:18:41;;;;;;;8.15;1.60;;;19.80;78.50;;;;;;5074384;28;20419;-75
2022/06/20 10:21:16;;;;;;;15.65;2.53;;;19.90;78.70;;;;;;5074092;28;20098;-75
2022/06/20 10:24:13;;;;;;;12.98;2.53;;;19.50;80.50;;;;;;5073976;28;20052;-76
2022/06/20 10:26:57;;;;;;;;;;;19.30;80.20;;;;;;5073955;28;20048;-75
2022/06/20 10:29:39;;;;;;;7.75;2.25;;;19.10;80.20;;;;;;5073515;28;19920;-75
2022/06/20 10:32:17;;;;;;;14.18;2.30;;;18.70;79.10;;;;;;5072277;28;20082;-76
2022/06/20 10:35:09;;;;;;;12.32;2.33;;;18.70;81.60;;;;;;5074046;28;20124;-76
2022/06/20 10:37:55;;;;;;;14.32;2.72;;;18.80;83.40;;;;;;5072416;28;20166;-75
2022/06/20 10:40:33;;;;;;;9.25;2.33;;;18.90;83.20;;;;;;5073547;28;20041;-76
2022/06/20 10:43:04;;;;;;;11.52;2.60;;;18.90;81.60;;;;;;5073286;28;20473;-74
2022/06/20 10:45:59;;;;;;;13.00;2.53;;;18.70;83.10;;;;;;5073459;28;20150;-76
2022/06/20 10:49:05;;;;;;;12.63;2.55;;;18.50;84.90;;;;;;5072723;28;20059;-75
2022/06/20 10:51:42;;;;;;;10.75;2.17;;;18.70;85.30;;;;;;5072583;28;20150;-78
2022/06/20 10:54:16;;;;;;;8.43;1.92;;;18.70;84.00;;;;;;5072615;28;20369;-74
2022/06/20 10:56:58;;;;;;;12.02;2.63;;;18.90;83.80;;;;;;5072583;28;20385;-75
2022/06/20 10:59:33;;;;;;;13.45;2.40;;;19.00;86.90;;;;;;5073583;28;20339;-75
2022/06/20 11:02:43;;;;;;;11.93;2.15;;;19.00;85.30;;;;;;5072716;28;20047;-74
2022/06/20 11:05:28;;;;;;;9.68;2.30;;;19.40;82.90;;;;;;5073116;28;20048;-75
2022/06/20 11:08:12;;;;;;;8.68;2.08;;;19.60;82.10;;;;;;5073218;28;20123;-74
2022/06/20 11:11:21;;;;;;;15.10;2.33;;;19.50;80.60;;;;;;5073080;28;20083;-75
2022/06/20 11:14:16;;;;;;;11.23;2.17;;;19.60;78.70;;;;;;5072893;28;20123;-75
2022/06/20 11:16:56;;;;;;;16.00;2.28;;;19.80;79.50;;;;;;5072873;28;20053;-73
2022/06/20 11:19:52;;;;;;;11.68;2.33;;;20.00;79.00;;;;;;5072544;28;20504;-75
2022/06/20 11:22:21;;;;;;;13.32;2.33;;;20.00;78.90;;;;;;5072886;28;20079;-74
2022/06/20 11:25:00;;;;;;;10.82;2.40;;;20.20;77.80;;;;;;5071414;28;20048;-76
2022/06/20 11:27:44;;;;;;;10.15;2.00;;;20.10;74.30;;;;;;5072813;28;20055;-76
2022/06/20 11:30:22;;;;;;;14.02;2.47;;;20.30;76.40;;;;;;5073141;28;20049;-75
2022/06/20 11:33:02;;;;;;;10.38;2.55;;;19.80;78.70;;;;;;5071424;28;20052;-76
2022/06/20 11:35:49;;;;;;;10.52;2.40;;;19.70;78.90;;;;;;5072980;28;20116;-74
2022/06/20 11:38:27;;;;;;;13.45;3.13;;;19.10;81.20;;;;;;5072566;28;20047;-76
2022/06/20 11:41:21;;;;;;;14.00;2.60;;;19.00;81.80;;;;;;5072705;28;20048;-76
2022/06/20 11:44:24;;;;;;;12.18;3.10;;;19.30;80.80;;;;;;5072265;28;20048;-75
2022/06/20 11:46:53;;;;;;;12.43;3.13;;;19.70;81.00;;;;;;5071360;28;20059;-76
2022/06/20 11:49:41;;;;;;;15.82;3.30;;;20.00;79.80;;;;;;5072204;28;20465;-75
2022/06/20 11:52:48;;;;;;;13.68;2.85;;;20.40;79.40;;;;;;5071331;28;20120;-75
2022/06/20 11:55:31;;;;;;;12.18;3.15;;;20.60;78.30;;;;;;5073201;28;20059;-77
2022/06/20 11:58:25;;;;;;;11.82;2.80;;;20.40;77.90;;;;;;5071458;28;20487;-75
2022/06/20 12:01:11;;;;;;;7.50;2.58;;;19.90;78.70;;;;;;5072771;28;20047;-75
2022/06/20 12:03:54;;;;;;;16.88;3.30;;;20.00;79.30;;;;;;5071538;28;20041;-77
2022/06/20 12:06:31;;;;;;;16.40;2.53;;;20.00;79.70;;;;;;5073234;28;20430;-76
2022/06/20 12:09:14;;;;;;;13.43;2.75;;;20.10;76.80;;;;;;5072447;28;20045;-76
2022/06/20 12:11:56;;;;;;;14.80;2.80;;;20.10;74.60;;;;;;5054544;28;20109;-78
2022/06/20 12:14:45;;;;;;;15.88;2.90;;;20.00;72.80;;;;;;5072626;28;20040;-75
2022/06/20 12:17:29;;;;;;;18.05;3.00;;;19.50;75.30;;;;;;5072258;28;20044;-75
2022/06/20 12:23:43;;;;;;;12.43;2.67;;;19.30;76.60;;;;;;5070879;28;20056;-75
2022/06/20 12:26:18;;;;;;;9.93;2.40;;;19.70;77.50;;;;;;5062763;28;20053;-76
2022/06/20 12:28:47;;;;;;;13.05;3.00;;;20.00;77.80;;;;;;5071207;28;20050;-76
2022/06/20 12:31:32;;;;;;;14.02;3.05;;;19.90;80.60;;;;;;5072210;28;20109;-76
2022/06/20 12:34:26;;;;;;;11.05;3.13;;;19.90;76.20;;;;;;5071480;28;20060;-76
2022/06/20 12:37:18;;;;;;;11.95;2.45;;;20.00;75.70;;;;;;5051789;28;20068;-74
2022/06/20 12:39:50;;;;;;;9.95;2.60;;;20.20;72.00;;;;;;5072668;28;20048;-76
2022/06/20 12:42:30;;;;;;;8.40;2.50;;;20.00;73.20;;;;;;5074557;28;20052;-76
2022/06/20 12:45:05;;;;;;;8.75;2.28;;;20.00;73.60;;;;;;5076001;28;20447;-76
2022/06/20 12:47:31;;;;;;;17.08;2.78;;;20.20;73.10;;;;;;5075516;28;20044;-77
2022/06/20 12:50:19;;;;;;;9.40;2.13;;;20.60;75.30;;;;;;5075200;28;20397;-77
2022/06/20 12:53:06;;;;;;;9.98;2.13;;;20.90;70.50;;;;;;5076377;28;20440;-75
2022/06/20 12:55:38;;;;;;;7.50;2.15;;;20.50;67.90;;;;;;5075683;28;20051;-75
2022/06/20 12:58:31;;;;;;;12.35;2.60;;;20.20;69.00;;;;;;5075110;28;20044;-74
2022/06/20 13:01:20;;;;;;;11.63;2.97;;;20.60;69.40;;;;;;5057622;28;20584;-78
2022/06/20 13:04:07;;;;;;;12.77;3.13;;;20.50;71.10;;;;;;5075589;28;20117;-78
2022/06/20 13:06:54;;;;;;;12.45;3.25;;;20.30;73.00;;;;;;5074724;28;20489;-76
2022/06/20 13:09:58;;;;;;;10.32;3.25;;;19.90;73.90;;;;;;5075119;28;20044;-78
2022/06/20 13:12:41;;;;;;;10.05;3.42;;;20.00;72.70;;;;;;5054147;28;20060;-79
2022/06/20 13:15:37;;;;;;;6.72;2.65;;;19.70;73.80;;;;;;5074187;28;20040;-78
2022/06/20 13:18:05;;;;;;;;;;;20.20;73.30;;;;;;5076151;28;20057;-76
2022/06/20 13:20:41;;;;;;;12.55;2.92;;;20.20;73.00;;;;;;5073731;28;19920;-76
2022/06/20 13:23:34;;;;;;;8.02;2.92;;;19.90;73.50;;;;;;5073775;28;20148;-75
2022/06/20 13:26:18;;;;;;;8.65;2.90;;;20.00;71.90;;;;;;5073923;28;20439;-79
2022/06/20 13:28:46;;;;;;;9.15;3.10;;;19.90;73.20;;;;;;5075064;28;20080;-78
2022/06/20 13:31:36;;;;;;;13.98;3.30;;;20.10;72.00;;;;;;5074996;28;20056;-74
2022/06/20 13:34:33;;;;;;;11.65;2.35;;;20.30;71.40;;;;;;5073519;28;20226;-74
2022/06/20 13:37:03;;;;;;;;;;;20.50;71.10;;;;;;5073987;28;20048;-75
2022/06/20 13:39:49;;;;;;;12.60;2.97;;;19.70;73.10;;;;;;5073405;28;19920;-76
2022/06/20 13:42:15;;;;;;;15.27;3.28;;;19.90;74.70;;;;;;5075297;28;20139;-76